createdAt,value
2022-08-03T00:01:27.923Z,3.70
2022-08-03T00:03:54.516Z,3.80
2022-08-03T00:06:21.252Z,3.10
2022-08-03T00:08:47.947Z,3.90
2022-08-03T00:11:14.731Z,3.38
2022-08-03T00:13:41.530Z,3.70
2022-08-03T00:16:10.840Z,3.78
2022-08-03T00:18:38.144Z,3.63
2022-08-03T00:21:05.881Z,4.25
2022-08-03T00:23:51.682Z,3.60
2022-08-03T00:26:20.619Z,4.10
2022-08-03T00:28:47.488Z,3.45
2022-08-03T00:31:14.317Z,3.85
2022-08-03T00:33:58.180Z,3.95
2022-08-03T00:36:27.634Z,3.65
2022-08-03T00:38:54.567Z,3.33
2022-08-03T00:41:21.396Z,3.70
2022-08-03T00:43:48.269Z,3.75
2022-08-03T00:46:20.561Z,4.10
2022-08-03T00:48:53.266Z,3.97
2022-08-03T00:51:24.085Z,3.55
2022-08-03T00:53:51.217Z,3.97
2022-08-03T00:56:18.241Z,3.60
2022-08-03T00:58:46.200Z,4.07
2022-08-03T01:01:13.172Z,3.90
2022-08-03T01:03:40.298Z,4.35
2022-08-03T01:06:16.112Z,3.97
2022-08-03T01:09:10.656Z,4.13
2022-08-03T01:12:01.069Z,3.67
2022-08-03T01:14:34.030Z,3.78
2022-08-03T01:17:14.942Z,3.92
2022-08-03T01:20:00.548Z,3.63
2022-08-03T01:25:16.333Z,3.38
2022-08-03T01:28:11.531Z,3.67
2022-08-03T01:30:40.451Z,3.47
2022-08-03T01:33:24.351Z,3.90
2022-08-03T01:36:00.823Z,4.30
2022-08-03T01:40:57.098Z,4.18
2022-08-03T01:44:27.144Z,3.53
2022-08-03T01:46:17.788Z,3.65
2022-08-03T01:48:47.526Z,3.72
2022-08-03T01:51:16.856Z,3.30
2022-08-03T01:53:44.634Z,4.00
2022-08-03T01:56:13.487Z,3.90
2022-08-03T01:58:42.300Z,3.88
2022-08-03T02:01:10.409Z,3.40
2022-08-03T02:04:00.226Z,3.83
2022-08-03T02:07:02.847Z,3.63
2022-08-03T02:09:17.423Z,3.45
2022-08-03T02:11:46.728Z,3.40
2022-08-03T02:14:14.828Z,3.50
2022-08-03T02:16:43.906Z,3.38
2022-08-03T02:19:11.761Z,4.10
2022-08-03T02:21:56.316Z,3.10
2022-08-03T02:24:25.546Z,3.25
2022-08-03T02:26:55.725Z,3.70
2022-08-03T02:29:39.247Z,3.50
2022-08-03T02:32:14.477Z,3.10
2022-08-03T02:34:45.277Z,3.40
2022-08-03T02:37:13.630Z,3.05
2022-08-03T02:39:42.979Z,3.33
2022-08-03T02:42:12.926Z,3.45
2022-08-03T02:44:41.672Z,3.53
2022-08-03T02:47:11.133Z,3.13
2022-08-03T02:49:51.368Z,3.17
2022-08-03T02:52:21.714Z,2.72
2022-08-03T02:54:51.267Z,3.05
2022-08-03T02:57:21.734Z,3.13
2022-08-03T02:59:49.790Z,3.10
2022-08-03T03:02:18.423Z,3.67
2022-08-03T03:04:59.717Z,3.40
2022-08-03T03:07:39.794Z,3.67
2022-08-03T03:10:21.708Z,3.45
2022-08-03T03:12:52.065Z,3.30
2022-08-03T03:15:19.118Z,3.00
2022-08-03T03:17:46.992Z,2.95
2022-08-03T03:20:15.787Z,3.47
2022-08-03T03:22:58.385Z,2.85
2022-08-03T03:25:25.217Z,2.95
2022-08-03T03:27:52.361Z,2.80
2022-08-03T03:30:19.236Z,3.42
2022-08-03T03:32:46.047Z,3.25
2022-08-03T03:35:14.318Z,3.33
2022-08-03T03:37:40.973Z,2.58
2022-08-03T03:40:09.110Z,2.17
2022-08-03T03:42:36.174Z,3.05
2022-08-03T03:45:07.179Z,2.85
2022-08-03T03:47:37.874Z,2.42
2022-08-03T03:50:06.843Z,2.70
2022-08-03T03:52:34.142Z,2.95
2022-08-03T03:55:01.509Z,2.58
2022-08-03T03:57:29.696Z,2.13
2022-08-03T03:59:56.471Z,2.80
2022-08-03T04:02:23.188Z,2.60
2022-08-03T04:05:08.485Z,2.50
2022-08-03T04:08:10.150Z,2.45
2022-08-03T04:10:58.291Z,2.50
2022-08-03T04:13:27.849Z,2.47
2022-08-03T04:15:57.745Z,2.63
2022-08-03T04:18:28.225Z,2.42
2022-08-03T04:20:59.276Z,2.25
2022-08-03T04:23:27.821Z,2.60
2022-08-03T04:25:56.493Z,2.50
2022-08-03T04:28:30.125Z,2.80
2022-08-03T04:31:01.250Z,2.53
2022-08-03T04:33:32.462Z,2.58
2022-08-03T04:36:03.414Z,2.33
2022-08-03T04:38:44.441Z,2.60
2022-08-03T04:41:12.378Z,2.53
2022-08-03T04:43:42.122Z,2.28
2022-08-03T04:46:09.976Z,2.03
2022-08-03T04:48:36.840Z,1.85
2022-08-03T04:51:04.531Z,2.33
2022-08-03T04:53:31.407Z,2.20
2022-08-03T04:56:05.818Z,2.58
2022-08-03T04:58:33.023Z,2.13
2022-08-03T05:00:59.990Z,2.42
2022-08-03T05:03:26.704Z,2.05
2022-08-03T05:06:09.790Z,2.53
2022-08-03T05:08:46.454Z,2.15
2022-08-03T05:11:16.631Z,2.30
2022-08-03T05:13:44.705Z,2.40
2022-08-03T05:16:12.229Z,1.90
2022-08-03T05:18:38.998Z,1.90
2022-08-03T05:21:05.667Z,2.10
2022-08-03T05:23:32.412Z,2.25
2022-08-03T05:25:59.111Z,1.75
2022-08-03T05:28:26.222Z,2.20
2022-08-03T05:30:53.029Z,1.45
2022-08-03T05:33:19.656Z,2.13
2022-08-03T05:35:57.397Z,1.63
2022-08-03T05:38:33.922Z,1.90
2022-08-03T05:41:23.556Z,1.80
2022-08-03T05:43:53.945Z,1.65
2022-08-03T05:46:21.921Z,1.80
2022-08-03T05:48:48.736Z,1.58
2022-08-03T05:51:15.481Z,1.88
2022-08-03T05:53:43.639Z,1.85
2022-08-03T05:56:14.189Z,1.98
2022-08-03T05:58:45.973Z,1.90
2022-08-03T06:01:12.961Z,2.30
2022-08-03T06:03:40.298Z,2.05
2022-08-03T06:06:07.507Z,2.15
2022-08-03T06:08:35.520Z,2.30
2022-08-03T06:11:02.624Z,3.13
2022-08-03T06:13:29.646Z,2.35
2022-08-03T06:15:56.695Z,2.88
2022-08-03T06:18:24.652Z,2.90
2022-08-03T06:20:52.318Z,3.20
2022-08-03T06:23:19.320Z,2.97
2022-08-03T06:25:47.468Z,3.42
2022-08-03T06:31:03.168Z,3.08
2022-08-03T06:34:30.228Z,3.33
2022-08-03T06:38:43.079Z,2.72
2022-08-03T06:41:09.705Z,2.75
2022-08-03T06:43:38.135Z,2.78
2022-08-03T06:46:24.385Z,2.72
2022-08-03T06:48:51.250Z,2.30
2022-08-03T06:51:18.356Z,2.60
2022-08-03T06:53:45.126Z,2.38
2022-08-03T06:56:11.841Z,2.28
2022-08-03T06:58:38.561Z,2.20
2022-08-03T07:01:05.321Z,1.73
2022-08-03T07:03:32.321Z,1.40
2022-08-03T07:06:00.029Z,1.60
2022-08-03T07:08:33.614Z,1.20
2022-08-03T07:11:01.629Z,1.35
2022-08-03T07:13:28.834Z,1.42
2022-08-03T07:15:58.229Z,1.25
2022-08-03T07:18:29.686Z,1.20
2022-08-03T07:20:58.018Z,1.00
2022-08-03T07:23:25.851Z,0.63
2022-08-03T07:25:53.093Z,0.80
2022-08-03T07:28:23.102Z,1.10
2022-08-03T07:30:49.758Z,0.55
2022-08-03T07:33:16.591Z,0.80
2022-08-03T07:35:43.639Z,0.88
2022-08-03T07:38:10.750Z,1.00
2022-08-03T07:40:43.161Z,0.93
2022-08-03T07:43:12.411Z,0.82
2022-08-03T07:45:39.181Z,0.60
2022-08-03T07:48:11.639Z,1.00
2022-08-03T07:50:39.076Z,1.00
2022-08-03T07:53:05.912Z,1.23
2022-08-03T07:55:32.681Z,1.00
2022-08-03T07:58:09.871Z,1.17
2022-08-03T08:00:37.010Z,1.20
2022-08-03T08:03:04.539Z,0.98
2022-08-03T08:05:31.696Z,0.90
2022-08-03T08:07:58.482Z,1.00
2022-08-03T08:10:25.522Z,1.08
2022-08-03T08:12:52.994Z,1.10
2022-08-03T08:15:19.948Z,0.85
2022-08-03T08:17:55.020Z,1.40
2022-08-03T08:20:27.966Z,1.50
2022-08-03T08:23:19.942Z,1.60
2022-08-03T08:25:52.042Z,1.75
2022-08-03T08:28:32.191Z,2.13
2022-08-03T08:30:59.980Z,1.90
2022-08-03T08:33:37.323Z,2.00
2022-08-03T08:36:15.399Z,1.85
2022-08-03T08:38:44.683Z,2.25
2022-08-03T08:41:13.280Z,2.03
2022-08-03T08:43:40.139Z,2.28
2022-08-03T08:46:10.554Z,2.53
2022-08-03T08:48:42.142Z,2.95
2022-08-03T08:51:11.681Z,2.63
2022-08-03T08:53:41.569Z,2.50
2022-08-03T08:56:12.968Z,2.75
2022-08-03T08:58:47.272Z,2.60
2022-08-03T09:01:13.957Z,2.85
2022-08-03T09:03:41.326Z,2.53
2022-08-03T09:06:08.510Z,2.95
2022-08-03T09:08:35.830Z,3.20
2022-08-03T09:11:03.026Z,2.70
2022-08-03T09:13:31.109Z,2.35
2022-08-03T09:16:19.855Z,2.80
2022-08-03T09:18:50.220Z,2.60
2022-08-03T09:21:34.152Z,2.35
2022-08-03T09:24:05.359Z,2.70
2022-08-03T09:26:35.482Z,2.30
2022-08-03T09:29:08.149Z,2.50
2022-08-03T09:31:44.030Z,2.60
2022-08-03T09:34:16.626Z,2.50
2022-08-03T09:36:51.088Z,2.47
2022-08-03T09:39:40.200Z,2.55
2022-08-03T09:42:15.438Z,2.78
2022-08-03T09:44:44.964Z,2.20
2022-08-03T09:47:13.593Z,2.40
2022-08-03T09:49:41.868Z,2.40
2022-08-03T09:52:31.951Z,2.85
2022-08-03T09:55:02.517Z,2.63
2022-08-03T09:57:33.085Z,2.58
2022-08-03T10:00:13.829Z,3.08
2022-08-03T10:02:42.296Z,2.70
2022-08-03T10:05:19.577Z,2.50
2022-08-03T10:07:48.788Z,2.17
2022-08-03T10:10:30.176Z,2.50
2022-08-03T10:13:00.256Z,2.38
2022-08-03T10:16:24.148Z,2.33
2022-08-03T10:18:14.473Z,2.08
2022-08-03T10:20:49.675Z,1.92
2022-08-03T10:23:18.584Z,2.03
2022-08-03T10:25:52.966Z,1.92
2022-08-03T10:28:21.844Z,2.00
2022-08-03T10:30:52.922Z,1.65
2022-08-03T10:33:50.713Z,2.10
2022-08-03T10:36:13.617Z,2.00
2022-08-03T10:38:54.242Z,1.80
2022-08-03T10:41:23.457Z,1.83
2022-08-03T10:44:10.459Z,1.67
2022-08-03T10:46:44.560Z,2.03
2022-08-03T10:49:21.470Z,2.13
2022-08-03T10:52:05.247Z,1.70
2022-08-03T10:55:10.033Z,1.70
2022-08-03T10:57:58.227Z,2.13
2022-08-03T11:00:28.125Z,2.67
2022-08-03T11:03:13.050Z,2.00
2022-08-03T11:05:42.388Z,2.35
2022-08-03T11:08:23.195Z,2.20
2022-08-03T11:10:53.024Z,2.40
2022-08-03T11:13:22.545Z,2.80
2022-08-03T11:15:52.214Z,2.28
2022-08-03T11:18:23.532Z,2.60
2022-08-03T11:20:59.487Z,2.80
2022-08-03T11:24:05.098Z,3.03
2022-08-03T11:26:36.507Z,2.50
2022-08-03T11:29:29.679Z,2.80
2022-08-03T11:31:57.130Z,2.70
2022-08-03T11:34:24.782Z,3.10
2022-08-03T11:37:30.161Z,2.97
2022-08-03T11:39:58.199Z,3.28
2022-08-03T11:42:25.036Z,3.17
2022-08-03T11:44:53.750Z,2.88
2022-08-03T11:47:21.843Z,3.28
2022-08-03T11:49:50.573Z,3.30
2022-08-03T11:52:18.253Z,2.78
2022-08-03T11:54:46.180Z,2.80
2022-08-03T11:57:13.514Z,2.92
2022-08-03T11:59:40.288Z,2.63
2022-08-03T12:02:16.155Z,3.25
2022-08-03T12:05:01.381Z,2.40
2022-08-03T12:08:04.566Z,2.80
2022-08-03T12:10:16.051Z,2.50
2022-08-03T12:12:46.799Z,2.80
2022-08-03T12:15:13.563Z,2.75
2022-08-03T12:17:41.939Z,2.60
2022-08-03T12:20:10.319Z,2.63
2022-08-03T12:22:39.818Z,2.50
2022-08-03T12:25:10.313Z,2.58
2022-08-03T12:27:37.059Z,2.50
2022-08-03T12:30:05.012Z,2.35
2022-08-03T12:32:31.802Z,2.35
2022-08-03T12:35:02.031Z,2.47
2022-08-03T12:37:29.757Z,2.13
2022-08-03T12:40:09.973Z,2.22
2022-08-03T12:42:39.609Z,2.70
2022-08-03T12:45:27.627Z,2.70
2022-08-03T12:47:57.095Z,2.85
2022-08-03T12:50:32.857Z,2.53
2022-08-03T12:55:57.128Z,2.72
2022-08-03T12:58:34.243Z,2.83
2022-08-03T13:01:04.842Z,2.75
2022-08-03T13:03:42.777Z,2.80
2022-08-03T13:06:17.675Z,3.38
2022-08-03T13:08:46.182Z,3.25
2022-08-03T13:11:57.218Z,3.08
2022-08-03T13:14:19.681Z,3.03
2022-08-03T13:16:47.615Z,3.45
2022-08-03T13:19:15.527Z,2.70
2022-08-03T13:21:53.834Z,3.17
2022-08-03T13:24:31.590Z,3.50
2022-08-03T13:27:22.551Z,3.05
2022-08-03T13:29:48.395Z,2.88
2022-08-03T13:32:14.937Z,3.15
2022-08-03T13:34:41.584Z,2.78
2022-08-03T13:37:09.639Z,2.47
2022-08-03T13:39:57.339Z,2.63
2022-08-03T13:42:23.606Z,2.60
2022-08-03T13:44:50.926Z,2.20
2022-08-03T13:47:18.179Z,2.20
2022-08-03T13:50:00.516Z,2.22
2022-08-03T13:52:34.112Z,2.65
2022-08-03T13:55:01.929Z,3.00
2022-08-03T13:58:03.181Z,2.97
2022-08-03T14:00:27.134Z,1.88
2022-08-03T14:03:06.614Z,2.42
2022-08-03T14:05:39.255Z,2.80
2022-08-03T14:08:07.193Z,2.75
2022-08-03T14:10:35.991Z,3.00
2022-08-03T14:13:06.061Z,2.70
2022-08-03T14:15:37.936Z,2.55
2022-08-03T14:18:06.238Z,2.83
2022-08-03T14:20:37.799Z,2.45
2022-08-03T14:23:12.975Z,2.42
2022-08-03T14:25:50.416Z,2.50
2022-08-03T14:28:20.907Z,2.17
2022-08-03T14:30:48.747Z,2.50
2022-08-03T14:33:15.808Z,2.50
2022-08-03T14:35:42.826Z,2.55
2022-08-03T14:38:09.481Z,2.00
2022-08-03T14:40:36.272Z,1.27
2022-08-03T14:43:02.945Z,1.60
2022-08-03T14:45:29.568Z,1.42
2022-08-03T14:49:02.650Z,1.67
2022-08-03T14:50:51.513Z,1.40
2022-08-03T14:53:20.146Z,1.50
2022-08-03T14:55:51.773Z,1.85
2022-08-03T14:58:23.697Z,1.60
2022-08-03T15:00:51.883Z,1.80
2022-08-03T15:03:23.399Z,1.60
2022-08-03T15:05:56.008Z,1.73
2022-08-03T15:08:24.302Z,1.38
2022-08-03T15:10:53.267Z,1.20
2022-08-03T15:13:23.853Z,1.25
2022-08-03T15:15:51.863Z,1.50
2022-08-03T15:18:20.444Z,1.52
2022-08-03T15:20:51.141Z,1.65
2022-08-03T15:23:18.755Z,1.20
2022-08-03T15:26:03.923Z,1.08
2022-08-03T15:28:37.307Z,1.23
2022-08-03T15:31:04.729Z,1.10
2022-08-03T15:33:31.873Z,1.40
2022-08-03T15:36:00.517Z,1.10
2022-08-03T15:38:27.287Z,1.17
2022-08-03T15:40:57.094Z,1.20
2022-08-03T15:43:23.970Z,0.98
2022-08-03T15:46:12.766Z,1.58
2022-08-03T15:48:38.386Z,1.40
2022-08-03T15:51:05.778Z,1.55
2022-08-03T15:53:33.751Z,1.63
2022-08-03T15:56:02.046Z,1.80
2022-08-03T15:59:09.649Z,1.40
2022-08-03T16:01:20.358Z,1.80
2022-08-03T16:03:47.586Z,2.00
2022-08-03T16:06:14.352Z,1.60
2022-08-03T16:08:41.171Z,1.98
2022-08-03T16:11:08.019Z,1.83
2022-08-03T16:14:12.871Z,1.40
2022-08-03T16:16:21.634Z,1.40
2022-08-03T16:18:48.413Z,1.40
2022-08-03T16:21:15.610Z,1.50
2022-08-03T16:23:47.076Z,1.45
2022-08-03T16:26:14.116Z,1.38
2022-08-03T16:28:40.875Z,1.10
2022-08-03T16:31:09.392Z,1.20
2022-08-03T16:33:36.140Z,1.27
2022-08-03T16:36:03.050Z,1.15
2022-08-03T16:38:32.572Z,1.40
2022-08-03T16:40:59.351Z,1.98
2022-08-03T16:43:26.343Z,1.60
2022-08-03T16:45:53.281Z,1.50
2022-08-03T16:48:20.250Z,1.90
2022-08-03T16:50:47.536Z,1.60
2022-08-03T16:53:16.676Z,1.58
2022-08-03T16:55:53.448Z,1.35
2022-08-03T16:58:41.704Z,1.58
2022-08-03T17:01:24.129Z,1.63
2022-08-03T17:04:03.123Z,1.52
2022-08-03T17:06:36.855Z,1.42
2022-08-03T17:09:13.467Z,1.42
2022-08-03T17:11:47.839Z,1.70
2022-08-03T17:14:17.584Z,1.40
2022-08-03T17:16:54.697Z,1.30
2022-08-03T17:19:26.718Z,1.55
2022-08-03T17:22:10.805Z,1.13
2022-08-03T17:24:44.460Z,1.30
2022-08-03T17:28:41.437Z,1.05
2022-08-03T17:30:13.603Z,0.80
2022-08-03T17:32:56.856Z,0.90
2022-08-03T17:35:36.674Z,1.30
2022-08-03T17:38:13.839Z,1.52
2022-08-03T17:40:48.138Z,1.20
2022-08-03T17:44:13.250Z,0.98
2022-08-03T17:46:10.617Z,1.30
2022-08-03T17:48:41.368Z,1.10
2022-08-03T17:51:26.685Z,1.20
2022-08-03T17:54:18.030Z,1.30
2022-08-03T18:00:33.355Z,1.88
2022-08-03T18:03:24.865Z,1.80
2022-08-03T18:06:11.276Z,1.20
2022-08-03T18:08:50.625Z,0.93
2022-08-03T18:11:21.886Z,1.13
2022-08-03T18:14:16.991Z,1.50
2022-08-03T18:16:57.638Z,1.48
2022-08-03T18:20:02.635Z,1.80
2022-08-03T18:22:15.644Z,1.83
2022-08-03T18:24:42.445Z,2.90
2022-08-03T18:27:13.760Z,2.25
2022-08-03T18:29:43.364Z,2.08
2022-08-03T18:32:16.824Z,2.00
2022-08-03T18:34:53.840Z,1.77
2022-08-03T18:37:25.230Z,1.45
2022-08-03T18:39:55.554Z,1.70
2022-08-03T18:42:26.141Z,2.00
2022-08-03T18:44:55.860Z,2.00
2022-08-03T18:47:50.617Z,1.92
2022-08-03T18:50:29.009Z,3.30
2022-08-03T18:53:19.612Z,3.80
2022-08-03T18:56:02.442Z,2.50
2022-08-03T18:58:48.366Z,2.13
2022-08-03T19:01:57.706Z,1.95
2022-08-03T19:04:35.351Z,1.85
2022-08-03T19:07:09.211Z,2.25
2022-08-03T19:09:48.006Z,2.13
2022-08-03T19:12:28.290Z,2.90
2022-08-03T19:15:04.494Z,3.30
2022-08-03T19:17:36.091Z,1.70
2022-08-03T19:20:06.329Z,2.00
2022-08-03T19:22:33.443Z,2.00
2022-08-03T19:25:02.336Z,2.70
2022-08-03T19:27:31.148Z,2.58
2022-08-03T19:30:03.900Z,3.08
2022-08-03T19:32:32.633Z,2.50
2022-08-03T19:35:01.790Z,2.72
2022-08-03T19:37:38.723Z,3.15
2022-08-03T19:40:10.419Z,3.60
2022-08-03T19:43:00.285Z,2.40
2022-08-03T19:46:05.440Z,1.88
2022-08-03T19:48:28.917Z,2.15
2022-08-03T19:50:58.024Z,2.13
2022-08-03T19:53:35.268Z,2.28
2022-08-03T19:58:35.421Z,2.03
2022-08-03T20:01:19.440Z,1.92
2022-08-03T20:03:49.554Z,4.88
2022-08-03T20:06:17.843Z,4.97
2022-08-03T20:08:45.510Z,4.50
2022-08-03T20:11:18.086Z,2.40
2022-08-03T20:13:48.385Z,2.13
2022-08-03T20:16:15.098Z,1.92
2022-08-03T20:18:42.777Z,2.10
2022-08-03T20:21:14.892Z,1.92
2022-08-03T20:24:01.874Z,2.10
2022-08-03T20:26:31.684Z,2.10
2022-08-03T20:29:09.863Z,1.80
2022-08-03T20:31:37.584Z,1.90
2022-08-03T20:34:06.274Z,1.90
2022-08-03T20:36:32.871Z,2.20
2022-08-03T20:38:59.652Z,2.45
2022-08-03T20:41:26.524Z,2.33
2022-08-03T20:43:53.146Z,2.45
2022-08-03T20:46:32.853Z,2.10
2022-08-03T20:49:05.729Z,2.40
2022-08-03T20:51:50.471Z,2.50
2022-08-03T20:54:29.733Z,2.25
2022-08-03T20:57:00.010Z,2.30
2022-08-03T20:59:36.883Z,2.00
2022-08-03T21:02:19.639Z,2.30
2022-08-03T21:04:56.003Z,2.20
2022-08-03T21:07:24.294Z,1.80
2022-08-03T21:09:52.747Z,2.10
2022-08-03T21:12:51.226Z,1.88
2022-08-03T21:12:55.925Z,1.30
2022-08-03T21:16:06.456Z,2.03
2022-08-03T21:18:11.847Z,2.60
2022-08-03T21:20:38.811Z,2.40
2022-08-03T21:23:09.124Z,2.42
2022-08-03T21:25:37.947Z,3.10
2022-08-03T21:28:07.577Z,2.92
2022-08-03T21:30:35.160Z,2.58
2022-08-03T21:33:02.209Z,2.83
2022-08-03T21:35:28.727Z,2.45
2022-08-03T21:38:13.806Z,2.58
2022-08-03T21:40:41.187Z,2.67
2022-08-03T21:43:08.354Z,2.20
2022-08-03T21:45:57.720Z,2.35
2022-08-03T21:48:25.590Z,2.25
2022-08-03T21:50:52.659Z,2.55
2022-08-03T21:53:19.851Z,2.28
2022-08-03T21:55:58.571Z,2.10
2022-08-03T21:58:30.964Z,2.40
2022-08-03T22:00:59.291Z,2.22
2022-08-03T22:03:26.622Z,2.80
2022-08-03T22:05:54.724Z,2.40
2022-08-03T22:08:34.397Z,2.40
2022-08-03T22:11:04.358Z,2.70
2022-08-03T22:13:43.603Z,2.15
2022-08-03T22:16:11.907Z,2.67
2022-08-03T22:18:41.058Z,2.83
2022-08-03T22:21:09.866Z,2.63
2022-08-03T22:23:48.816Z,2.78
2022-08-03T22:26:34.120Z,2.38
2022-08-03T22:29:01.960Z,2.28
2022-08-03T22:31:56.886Z,2.20
2022-08-03T22:34:15.364Z,2.17
2022-08-03T22:36:42.698Z,1.92
2022-08-03T22:39:09.855Z,1.95
2022-08-03T22:41:36.587Z,1.95
2022-08-03T22:44:04.773Z,1.77
2022-08-03T22:46:33.834Z,2.10
2022-08-03T22:49:01.414Z,1.90
2022-08-03T22:51:28.276Z,2.08
2022-08-03T22:53:55.173Z,1.73
2022-08-03T22:56:22.291Z,2.00
2022-08-03T22:58:48.884Z,2.13
2022-08-03T23:01:21.116Z,1.95
2022-08-03T23:03:58.617Z,2.15
2022-08-03T23:06:32.372Z,2.35
2022-08-03T23:08:59.029Z,2.00
2022-08-03T23:11:27.136Z,2.03
2022-08-03T23:13:56.508Z,2.20
2022-08-03T23:16:28.688Z,2.10
2022-08-03T23:18:57.971Z,2.40
2022-08-03T23:21:53.237Z,2.15
2022-08-03T23:24:17.736Z,1.90
2022-08-03T23:26:53.769Z,1.90
2022-08-03T23:29:21.688Z,1.80
2022-08-03T23:31:49.717Z,2.25
2022-08-03T23:34:36.279Z,2.13
2022-08-03T23:37:05.482Z,2.13
2022-08-03T23:39:35.307Z,2.65
2022-08-03T23:42:03.058Z,2.97
2022-08-03T23:44:31.971Z,2.95
2022-08-03T23:46:58.594Z,2.40
2022-08-03T23:49:25.171Z,2.10
2022-08-03T23:52:07.294Z,2.17
2022-08-03T23:54:33.893Z,1.90
2022-08-03T23:57:13.279Z,2.05
